Time;durP1;ratioP1;P1;durP2;ratioP2;P2;SDS_P1;SDS_P2;PMS_P1;PMS_P2;Temp;Humidity;BMP_temperature;BMP_pressure;BME280_temperature;BME280_humidity;BME280_pressure;Samples;Min_cycle;Max_cycle;Signal;HPM_P1;HPM_P2
2023/05/03 00:01:34;;;;;;;7.38;4.50;;;8.00;99.90;;;;;;5093359;28;20739;-47
2023/05/03 00:04:00;;;;;;;10.25;4.72;;;8.00;99.90;;;;;;5091897;28;20176;-47
2023/05/03 00:06:26;;;;;;;13.13;4.93;;;;;;;;;;5092563;28;20165;-47
2023/05/03 00:08:52;;;;;;;12.15;4.97;;;8.00;99.90;;;;;;5092790;28;20180;-47
2023/05/03 00:11:18;;;;;;;6.95;4.82;;;;;;;;;;5092678;28;20157;-47
2023/05/03 00:13:44;;;;;;;10.43;4.82;;;;;;;;;;5092853;28;20594;-47
2023/05/03 00:16:10;;;;;;;9.13;4.90;;;7.90;99.90;;;;;;5092718;28;20211;-47
2023/05/03 00:18:36;;;;;;;8.35;5.07;;;7.90;99.90;;;;;;5092729;28;20177;-47
2023/05/03 00:21:02;;;;;;;8.25;4.78;;;;;;;;;;5093156;28;20183;-47
2023/05/03 00:23:28;;;;;;;11.30;5.05;;;;;;;;;;5092786;28;20238;-47
2023/05/03 00:25:57;;;;;;;9.07;4.97;;;7.80;99.90;;;;;;5092327;28;20626;-47
2023/05/03 00:28:24;;;;;;;13.18;5.22;;;7.70;99.90;;;;;;5092487;28;20173;-47
2023/05/03 00:30:50;;;;;;;11.23;5.05;;;;;;;;;;5092403;28;20561;-47
2023/05/03 00:33:16;;;;;;;12.20;5.30;;;;;;;;;;5092550;28;20245;-47
2023/05/03 00:35:42;;;;;;;6.10;5.05;;;7.60;99.90;;;;;;5092229;28;20208;-47
2023/05/03 00:38:08;;;;;;;10.52;4.57;;;7.60;99.90;;;;;;5092415;28;20193;-47
2023/05/03 00:40:34;;;;;;;9.30;4.90;;;7.60;99.90;;;;;;5091652;28;20227;-47
2023/05/03 00:43:00;;;;;;;8.88;5.43;;;;;;;;;;5092772;28;20594;-47
2023/05/03 00:45:26;;;;;;;10.82;5.32;;;;;;;;;;5092375;28;20244;-47
2023/05/03 00:47:52;;;;;;;7.82;4.68;;;7.70;99.90;;;;;;5092367;28;20618;-47
2023/05/03 00:50:18;;;;;;;10.63;4.95;;;7.60;99.90;;;;;;5092251;28;20218;-47
2023/05/03 00:52:44;;;;;;;8.10;4.80;;;7.60;99.90;;;;;;5092157;28;20197;-47
2023/05/03 00:55:10;;;;;;;9.23;5.15;;;7.60;99.90;;;;;;5092028;28;20314;-47
2023/05/03 00:57:36;;;;;;;8.52;4.90;;;;;;;;;;5092224;28;20202;-47
2023/05/03 01:00:02;;;;;;;10.15;4.80;;;7.70;99.90;;;;;;5092577;28;20169;-47
2023/05/03 01:02:29;;;;;;;8.40;5.03;;;;;;;;;;5090749;28;20520;-47
2023/05/03 01:04:55;;;;;;;9.80;5.60;;;7.60;99.90;;;;;;5091859;28;20208;-47
2023/05/03 01:07:37;;;;;;;10.52;4.80;;;7.60;99.90;;;;;;5092243;28;20188;-47
2023/05/03 01:10:13;;;;;;;9.82;5.45;;;7.50;99.90;;;;;;5092188;28;20197;-47
2023/05/03 01:13:13;;;;;;;9.38;5.00;;;7.50;99.90;;;;;;5091766;28;20910;-47
2023/05/03 01:15:55;;;;;;;8.73;4.70;;;7.40;99.90;;;;;;5091716;28;20205;-47
2023/05/03 01:18:27;;;;;;;6.82;4.50;;;7.40;99.90;;;;;;5091662;28;20157;-47
2023/05/03 01:20:55;;;;;;;6.00;4.25;;;7.40;99.90;;;;;;5091667;28;20200;-47
2023/05/03 01:23:35;;;;;;;6.28;4.95;;;7.20;99.90;;;;;;5091595;28;20177;-47
2023/05/03 01:26:16;;;;;;;7.72;4.63;;;7.30;99.90;;;;;;5092107;28;20214;-47
2023/05/03 01:28:42;;;;;;;6.75;4.72;;;7.30;99.90;;;;;;5091747;28;20170;-47
2023/05/03 01:31:07;;;;;;;8.50;4.90;;;7.30;99.90;;;;;;5091666;28;20956;-47
2023/05/03 01:33:47;;;;;;;7.93;4.38;;;7.30;99.90;;;;;;5092101;28;20165;-47
2023/05/03 01:36:21;;;;;;;8.88;4.82;;;7.30;99.90;;;;;;5091344;28;20193;-47
2023/05/03 01:38:48;;;;;;;7.30;5.10;;;7.20;99.90;;;;;;5091262;28;20203;-47
2023/05/03 01:41:17;;;;;;;13.93;5.22;;;7.20;99.90;;;;;;5091349;28;20216;-47
2023/05/03 01:43:43;;;;;;;9.65;5.18;;;7.20;99.90;;;;;;5091183;28;20649;-47
2023/05/03 01:46:09;;;;;;;6.88;4.70;;;7.10;99.90;;;;;;5091512;28;20161;-47
2023/05/03 01:48:35;;;;;;;9.75;4.57;;;7.10;99.90;;;;;;5091433;28;20553;-46
2023/05/03 01:51:01;;;;;;;8.57;5.22;;;;;;;;;;5091444;28;20161;-46
2023/05/03 01:53:26;;;;;;;8.43;5.03;;;7.00;99.90;;;;;;5091122;28;20170;-46
2023/05/03 01:55:52;;;;;;;8.70;4.78;;;7.00;99.90;;;;;;5090991;28;20212;-47
2023/05/03 01:58:17;;;;;;;8.80;4.88;;;7.10;99.90;;;;;;5090908;28;20170;-46
2023/05/03 02:00:44;;;;;;;6.68;5.47;;;7.10;99.90;;;;;;5091161;28;20177;-47
2023/05/03 02:03:10;;;;;;;7.25;4.97;;;7.00;99.90;;;;;;5090720;28;20618;-46
2023/05/03 02:05:36;;;;;;;9.10;5.22;;;7.00;99.90;;;;;;5090815;28;20232;-46
2023/05/03 02:08:02;;;;;;;7.50;5.30;;;;;;;;;;5091288;28;20587;-46
2023/05/03 02:10:27;;;;;;;8.18;5.28;;;6.90;99.90;;;;;;5091017;28;20177;-46
2023/05/03 02:12:53;;;;;;;7.35;4.95;;;6.90;99.90;;;;;;5090630;28;20169;-46
2023/05/03 02:15:19;;;;;;;8.60;5.22;;;;;;;;;;5089414;28;20208;-46
2023/05/03 02:17:46;;;;;;;8.32;4.95;;;7.00;99.90;;;;;;5090951;28;20218;-46
2023/05/03 02:20:12;;;;;;;8.75;4.80;;;6.90;99.90;;;;;;5090585;28;20197;-46
2023/05/03 02:22:37;;;;;;;8.77;4.82;;;6.90;99.90;;;;;;5090432;28;20254;-46
2023/05/03 02:25:03;;;;;;;6.35;4.78;;;6.90;99.90;;;;;;5090801;28;20226;-46
2023/05/03 02:27:29;;;;;;;13.38;5.30;;;6.90;99.90;;;;;;5089519;28;20202;-46
2023/05/03 02:29:55;;;;;;;9.48;5.30;;;6.80;99.90;;;;;;5090670;28;20256;-46
2023/05/03 02:32:20;;;;;;;10.00;5.28;;;6.60;99.90;;;;;;5090687;28;20173;-46
2023/05/03 02:34:48;;;;;;;8.23;5.25;;;6.70;99.90;;;;;;5090313;28;20248;-47
2023/05/03 02:37:14;;;;;;;9.23;5.07;;;6.70;99.90;;;;;;5090235;28;20213;-47
2023/05/03 02:39:40;;;;;;;6.60;4.90;;;;;;;;;;5090136;28;20598;-47
2023/05/03 02:42:06;;;;;;;12.55;5.85;;;6.60;99.90;;;;;;5088915;28;20174;-47
2023/05/03 02:44:32;;;;;;;9.32;5.55;;;6.70;99.90;;;;;;5090711;28;20174;-47
2023/05/03 02:46:58;;;;;;;7.90;5.10;;;;;;;;;;5090134;28;20188;-47
2023/05/03 02:49:23;;;;;;;9.30;5.90;;;6.70;99.90;;;;;;5090279;28;20541;-47
2023/05/03 02:51:51;;;;;;;8.70;5.82;;;;;;;;;;5090318;28;20192;-47
2023/05/03 02:54:17;;;;;;;8.20;5.22;;;6.70;99.90;;;;;;5089990;28;20219;-47
2023/05/03 02:56:43;;;;;;;11.75;5.82;;;;;;;;;;5090223;28;20209;-47
2023/05/03 02:59:08;;;;;;;10.23;5.40;;;6.70;99.90;;;;;;5089819;28;20176;-47
2023/05/03 03:01:34;;;;;;;7.82;5.57;;;6.70;99.90;;;;;;5089864;28;20781;-47
2023/05/03 03:04:00;;;;;;;8.13;5.15;;;6.60;99.90;;;;;;5089668;28;20755;-47
2023/05/03 03:06:26;;;;;;;8.55;5.70;;;;;;;;;;5089922;28;20186;-47
2023/05/03 03:08:51;;;;;;;8.60;5.38;;;6.60;99.90;;;;;;5089859;28;20172;-47
2023/05/03 03:11:17;;;;;;;13.05;5.07;;;6.50;99.90;;;;;;5090044;28;20173;-47
2023/05/03 03:13:43;;;;;;;9.57;5.15;;;6.40;99.90;;;;;;5090101;28;20214;-47
2023/05/03 03:16:09;;;;;;;8.93;5.65;;;6.40;99.90;;;;;;5089765;28;20197;-47
2023/05/03 03:18:35;;;;;;;8.27;4.80;;;6.40;99.90;;;;;;5089821;28;20253;-47
2023/05/03 03:21:02;;;;;;;9.43;5.38;;;6.30;99.90;;;;;;5090155;28;20169;-47
2023/05/03 03:23:27;;;;;;;8.48;5.40;;;6.30;99.90;;;;;;5089621;28;20166;-47
2023/05/03 03:25:53;;;;;;;7.57;5.00;;;6.30;99.90;;;;;;5088517;28;20165;-47
2023/05/03 03:28:18;;;;;;;9.18;5.50;;;6.20;99.90;;;;;;5088370;28;20161;-47
2023/05/03 03:30:44;;;;;;;7.32;5.03;;;6.20;99.90;;;;;;5089826;28;20181;-47
2023/05/03 03:33:10;;;;;;;8.02;5.00;;;6.20;99.90;;;;;;5089906;28;20173;-47
2023/05/03 03:35:36;;;;;;;6.70;4.70;;;6.30;99.90;;;;;;5089807;28;20209;-47
2023/05/03 03:38:02;;;;;;;8.80;5.20;;;6.20;99.90;;;;;;5089984;28;20169;-47
2023/05/03 03:40:28;;;;;;;9.23;5.25;;;6.20;99.90;;;;;;5089965;28;20169;-47
2023/05/03 03:42:54;;;;;;;9.00;5.60;;;6.20;99.90;;;;;;5089472;28;20177;-47
2023/05/03 03:45:20;;;;;;;9.55;5.90;;;;;;;;;;5089502;28;20221;-47
2023/05/03 03:47:45;;;;;;;8.88;5.60;;;6.10;99.90;;;;;;5089065;28;20165;-47
2023/05/03 03:50:11;;;;;;;11.02;6.13;;;;;;;;;;5088235;28;20166;-47
2023/05/03 03:52:37;;;;;;;10.48;6.30;;;;;;;;;;5089382;28;20172;-47
2023/05/03 03:55:03;;;;;;;12.95;5.63;;;;;;;;;;5089603;28;20165;-47
2023/05/03 03:57:30;;;;;;;9.57;5.78;;;6.10;99.90;;;;;;5089859;28;20180;-47
2023/05/03 03:59:57;;;;;;;7.63;5.25;;;6.20;99.90;;;;;;5089350;28;20170;-47
2023/05/03 04:02:23;;;;;;;7.90;5.18;;;;;;;;;;5089654;28;20181;-46
2023/05/03 04:04:49;;;;;;;10.68;4.97;;;6.20;99.90;;;;;;5089232;28;20292;-47
2023/05/03 04:07:14;;;;;;;8.75;5.13;;;6.20;99.90;;;;;;5089510;28;20256;-47
2023/05/03 04:09:40;;;;;;;17.38;5.68;;;6.20;99.90;;;;;;5089330;28;20626;-47
2023/05/03 04:12:06;;;;;;;10.20;5.20;;;6.20;99.90;;;;;;5089114;28;20164;-47
2023/05/03 04:14:31;;;;;;;10.18;5.45;;;6.30;99.90;;;;;;5090097;28;20177;-47
2023/05/03 04:16:57;;;;;;;10.25;5.35;;;6.20;99.90;;;;;;5092832;28;20236;-47
2023/05/03 04:19:24;;;;;;;9.98;4.95;;;6.20;99.90;;;;;;5093077;28;20169;-47
2023/05/03 04:21:50;;;;;;;8.77;5.45;;;;;;;;;;5093081;28;20180;-47
2023/05/03 04:24:16;;;;;;;9.20;5.80;;;;;;;;;;5092717;28;20177;-47
2023/05/03 04:26:42;;;;;;;13.40;5.63;;;6.30;99.90;;;;;;5093065;28;20189;-47
2023/05/03 04:29:10;;;;;;;7.88;5.43;;;6.30;99.90;;;;;;5092524;28;20169;-47
2023/05/03 04:31:36;;;;;;;9.65;5.20;;;6.30;99.90;;;;;;5093020;28;20180;-47
2023/05/03 04:34:01;;;;;;;7.85;5.28;;;6.40;99.90;;;;;;5092906;28;20184;-47
2023/05/03 04:36:28;;;;;;;8.50;4.43;;;6.40;99.90;;;;;;5092401;28;20213;-47
2023/05/03 04:38:54;;;;;;;6.95;5.18;;;6.40;99.90;;;;;;5092628;28;20166;-47
2023/05/03 04:41:21;;;;;;;6.10;4.35;;;;;;;;;;5092563;28;20238;-47
2023/05/03 04:43:46;;;;;;;8.52;5.13;;;6.20;99.90;;;;;;5092710;28;20169;-47
2023/05/03 04:46:12;;;;;;;9.02;5.43;;;;;;;;;;5092387;28;20180;-47
2023/05/03 04:48:38;;;;;;;7.43;5.60;;;6.20;99.90;;;;;;5092487;28;20165;-47
2023/05/03 04:51:04;;;;;;;9.02;4.60;;;6.10;99.90;;;;;;5092332;28;20632;-47
2023/05/03 04:53:30;;;;;;;12.77;5.38;;;;;;;;;;5092906;28;20197;-47
2023/05/03 04:55:56;;;;;;;12.10;5.50;;;;;;;;;;5092413;28;20216;-47
2023/05/03 04:58:21;;;;;;;10.65;5.47;;;6.40;99.90;;;;;;5092058;28;20169;-47
2023/05/03 05:00:48;;;;;;;11.32;6.55;;;6.40;99.90;;;;;;5092342;28;20264;-46
2023/05/03 05:03:14;;;;;;;12.68;7.32;;;6.50;99.90;;;;;;5092203;28;20242;-53
2023/05/03 05:05:39;;;;;;;13.70;7.60;;;6.50;99.90;;;;;;5092102;28;20274;-46
2023/05/03 05:08:05;;;;;;;13.73;8.02;;;;;;;;;;5091596;28;20265;-46
2023/05/03 05:10:31;;;;;;;12.70;6.93;;;6.80;99.90;;;;;;5092359;28;20753;-47
2023/05/03 05:12:57;;;;;;;10.25;6.97;;;6.90;99.90;;;;;;5091726;28;20185;-46
2023/05/03 05:15:23;;;;;;;10.73;6.93;;;;;;;;;;5091523;28;20278;-46
2023/05/03 05:17:48;;;;;;;11.25;5.95;;;7.00;99.90;;;;;;5092330;28;20169;-46
2023/05/03 05:20:14;;;;;;;6.55;4.65;;;;;;;;;;5091782;28;20169;-47
2023/05/03 05:22:40;;;;;;;8.95;6.18;;;7.20;99.90;;;;;;5091699;28;20174;-46
2023/05/03 05:25:06;;;;;;;10.00;6.97;;;7.30;99.90;;;;;;5091409;28;21133;-47
2023/05/03 05:27:33;;;;;;;13.13;6.90;;;7.40;99.90;;;;;;5091820;28;20177;-47
2023/05/03 05:29:59;;;;;;;8.32;5.97;;;;;;;;;;5091867;28;20173;-47
2023/05/03 05:32:25;;;;;;;9.93;5.53;;;;;;;;;;5091535;28;20256;-47
2023/05/03 05:34:54;;;;;;;10.60;6.18;;;;;;;;;;5091651;28;20547;-47
2023/05/03 05:37:21;;;;;;;8.25;5.70;;;7.60;99.90;;;;;;5091602;28;20249;-46
2023/05/03 05:39:47;;;;;;;10.90;7.03;;;;;;;;;;5091287;28;20661;-47
2023/05/03 05:42:13;;;;;;;12.25;6.57;;;;;;;;;;5091110;28;20173;-47
2023/05/03 05:44:39;;;;;;;9.45;5.43;;;;;;;;;;5090941;28;20255;-47
2023/05/03 05:47:05;;;;;;;14.57;6.35;;;7.90;99.90;;;;;;5090920;28;20161;-47
2023/05/03 05:49:31;;;;;;;11.13;5.53;;;8.10;99.90;;;;;;5091414;28;20170;-47
2023/05/03 05:51:56;;;;;;;11.65;5.65;;;8.10;99.90;;;;;;5091365;28;20264;-47
2023/05/03 05:54:22;;;;;;;8.70;5.22;;;;;;;;;;5090683;28;20169;-47
2023/05/03 05:56:49;;;;;;;9.90;4.97;;;;;;;;;;5090745;28;20255;-47
2023/05/03 05:59:15;;;;;;;18.17;6.50;;;;;;;;;;5090824;28;20638;-48
2023/05/03 06:01:43;;;;;;;11.70;5.30;;;;;;;;;;5090694;28;20177;-47
2023/05/03 06:04:09;;;;;;;10.68;5.22;;;8.30;99.90;;;;;;5090734;28;20209;-47
2023/05/03 06:06:35;;;;;;;8.98;5.70;;;8.40;99.90;;;;;;5090560;28;20201;-47
2023/05/03 06:09:01;;;;;;;6.63;4.63;;;8.30;99.90;;;;;;5091000;28;20234;-47
2023/05/03 06:11:28;;;;;;;10.13;5.18;;;;;;;;;;5090729;28;20165;-47
2023/05/03 06:13:55;;;;;;;10.25;5.63;;;;;;;;;;5090720;28;20173;-47
2023/05/03 06:16:21;;;;;;;12.35;5.47;;;;;;;;;;5090575;28;20219;-47
2023/05/03 06:18:47;;;;;;;13.93;5.72;;;;;;;;;;5090880;28;20646;-47
2023/05/03 06:21:13;;;;;;;10.75;6.53;;;8.70;99.90;;;;;;5090231;28;20240;-47
2023/05/03 06:23:39;;;;;;;13.48;7.50;;;;;;;;;;5090541;28;20843;-47
2023/05/03 06:26:05;;;;;;;16.40;7.53;;;8.90;99.90;;;;;;5090481;28;20169;-47
2023/05/03 06:28:30;;;;;;;10.70;6.60;;;9.00;99.90;;;;;;5090775;28;20168;-47
2023/05/03 06:30:56;;;;;;;15.90;7.13;;;;;;;;;;5090270;28;20174;-47
2023/05/03 06:33:22;;;;;;;8.38;6.07;;;9.10;99.90;;;;;;5090408;28;20245;-47
2023/05/03 06:35:48;;;;;;;9.73;6.38;;;9.20;99.90;;;;;;5090209;28;20260;-47
2023/05/03 06:38:14;;;;;;;7.70;5.55;;;;;;;;;;5089836;28;20169;-48
2023/05/03 06:40:40;;;;;;;9.52;5.97;;;;;;;;;;5090496;28;20169;-48
2023/05/03 06:43:06;;;;;;;12.55;5.93;;;9.30;99.90;;;;;;5089475;28;20526;-47
2023/05/03 06:45:32;;;;;;;8.90;5.90;;;;;;;;;;5089831;28;20234;-47
2023/05/03 06:47:58;;;;;;;11.40;5.20;;;;;;;;;;5090242;28;20272;-47
2023/05/03 06:50:24;;;;;;;12.82;7.32;;;9.70;99.90;;;;;;5089922;28;20161;-47
2023/05/03 06:52:50;;;;;;;12.13;6.22;;;;;;;;;;5090137;28;20188;-48
2023/05/03 06:55:16;;;;;;;9.10;5.47;;;;;;;;;;5090321;28;20257;-48
2023/05/03 06:57:42;;;;;;;9.35;4.97;;;9.90;99.90;;;;;;5089793;28;20169;-48
2023/05/03 07:00:09;;;;;;;13.68;5.43;;;10.00;99.90;;;;;;5089951;28;20161;-45
2023/05/03 07:02:35;;;;;;;9.95;5.00;;;;;;;;;;5090200;28;20173;-47
2023/05/03 07:05:01;;;;;;;14.98;5.15;;;;;;;;;;5090102;28;20587;-49
2023/05/03 07:07:27;;;;;;;9.75;4.53;;;10.30;99.90;;;;;;5089205;28;20201;-47
2023/05/03 07:09:53;;;;;;;8.50;4.75;;;10.30;99.90;;;;;;5089604;28;20226;-47
2023/05/03 07:12:19;;;;;;;6.65;4.28;;;;;;;;;;5089848;28;20168;-49
2023/05/03 07:14:46;;;;;;;7.35;4.60;;;;;;;;;;5089782;28;20165;-49
2023/05/03 07:17:11;;;;;;;11.10;5.13;;;10.40;99.90;;;;;;5089825;28;20193;-49
2023/05/03 07:19:38;;;;;;;7.53;5.22;;;10.60;99.90;;;;;;5089785;28;20230;-51
2023/05/03 07:22:04;;;;;;;6.93;5.18;;;10.60;99.90;;;;;;5089930;28;20177;-48
2023/05/03 07:24:29;;;;;;;7.95;5.28;;;10.40;99.90;;;;;;5090443;28;20172;-55
2023/05/03 07:26:56;;;;;;;11.15;5.72;;;10.40;99.90;;;;;;5089836;28;20548;-49
2023/05/03 07:29:23;;;;;;;9.30;5.95;;;;;;;;;;5089863;28;20173;-46
2023/05/03 07:31:49;;;;;;;9.00;5.00;;;;;;;;;;5089384;28;20637;-47
2023/05/03 07:34:14;;;;;;;11.23;6.47;;;10.80;99.90;;;;;;5089781;28;20613;-47
2023/05/03 07:36:40;;;;;;;10.07;5.55;;;;;;;;;;5089282;28;20236;-45
2023/05/03 07:39:06;;;;;;;10.27;5.93;;;11.10;99.90;;;;;;5089373;28;20173;-47
2023/05/03 07:41:32;;;;;;;11.68;6.40;;;;;;;;;;5089254;28;20173;-46
2023/05/03 07:43:57;;;;;;;7.45;5.72;;;11.20;99.90;;;;;;5089789;28;20518;-45
2023/05/03 07:46:23;;;;;;;14.65;6.25;;;11.30;99.90;;;;;;5089377;28;20188;-46
2023/05/03 07:48:49;;;;;;;12.40;6.25;;;;;;;;;;5090527;28;20528;-47
2023/05/03 07:51:14;;;;;;;13.48;6.65;;;11.50;99.90;;;;;;5093407;28;20161;-46
2023/05/03 07:53:40;;;;;;;11.13;6.55;;;;;;;;;;5093204;28;20173;-45
2023/05/03 07:56:06;;;;;;;9.90;8.25;;;11.80;99.90;;;;;;5093160;28;20240;-46
2023/05/03 07:58:32;;;;;;;9.45;5.90;;;11.70;99.90;;;;;;5093255;28;20477;-45
2023/05/03 08:00:58;;;;;;;9.10;6.43;;;;;;;;;;5093548;28;20630;-45
2023/05/03 08:03:24;;;;;;;12.63;6.32;;;12.10;99.90;;;;;;5093208;28;20626;-45
2023/05/03 08:05:49;;;;;;;10.82;5.93;;;12.30;99.90;;;;;;5093497;28;20221;-45
2023/05/03 08:08:15;;;;;;;7.97;5.35;;;12.10;99.90;;;;;;5092962;28;20173;-45
2023/05/03 08:10:41;;;;;;;9.13;5.47;;;;;;;;;;5093060;28;20180;-45
2023/05/03 08:13:07;;;;;;;9.45;5.03;;;12.30;99.90;;;;;;5093079;28;20181;-45
2023/05/03 08:15:33;;;;;;;6.80;4.68;;;;;;;;;;5092934;28;20551;-45
2023/05/03 08:17:59;;;;;;;10.23;4.95;;;12.40;99.90;;;;;;5093316;28;20206;-45
2023/05/03 08:20:29;;;;;;;10.23;5.18;;;;;;;;;;5092929;28;20624;-45
2023/05/03 08:22:58;;;;;;;7.45;4.70;;;12.50;99.90;;;;;;5092978;28;20169;-46
2023/05/03 08:25:24;;;;;;;6.60;4.40;;;12.60;99.90;;;;;;5092670;28;20173;-46
2023/05/03 08:27:51;;;;;;;8.43;4.50;;;;;;;;;;5092702;28;20176;-45
2023/05/03 08:30:17;;;;;;;9.70;4.40;;;;;;;;;;5092638;28;20169;-46
2023/05/03 08:32:42;;;;;;;6.60;4.13;;;12.90;99.90;;;;;;5092685;28;20660;-46
2023/05/03 08:35:08;;;;;;;5.43;3.83;;;13.10;99.90;;;;;;5092234;28;20218;-46
2023/05/03 08:37:41;;;;;;;7.30;3.65;;;13.00;99.90;;;;;;5092456;28;20256;-45
2023/05/03 08:40:12;;;;;;;7.85;4.57;;;13.10;99.90;;;;;;5092744;28;20264;-45
2023/05/03 08:42:48;;;;;;;8.85;4.63;;;13.00;99.90;;;;;;5092578;28;20208;-45
2023/05/03 08:45:15;;;;;;;9.82;4.65;;;13.10;99.90;;;;;;5092360;28;20169;-45
2023/05/03 08:47:43;;;;;;;9.40;4.72;;;13.30;99.90;;;;;;5092573;28;20626;-45
2023/05/03 08:50:10;;;;;;;10.57;5.00;;;13.60;99.90;;;;;;5092469;28;20229;-45
2023/05/03 08:52:36;;;;;;;8.27;4.75;;;;;;;;;;5092075;28;20181;-45
2023/05/03 08:55:02;;;;;;;12.65;4.97;;;;;;;;;;5092365;28;20241;-45
2023/05/03 08:57:29;;;;;;;5.18;4.55;;;13.50;99.90;;;;;;5092366;28;20697;-46
2023/05/03 08:59:59;;;;;;;7.13;4.80;;;13.50;99.90;;;;;;5091931;28;20174;-45
2023/05/03 09:02:25;;;;;;;8.45;4.70;;;13.70;99.90;;;;;;5091937;28;20165;-46
2023/05/03 09:04:51;;;;;;;6.40;4.45;;;13.70;99.90;;;;;;5091882;28;20225;-45
2023/05/03 09:07:18;;;;;;;11.15;4.57;;;13.60;99.90;;;;;;5091903;28;20672;-46
2023/05/03 09:09:45;;;;;;;6.30;4.80;;;13.70;99.90;;;;;;5092223;28;20177;-45
2023/05/03 09:12:11;;;;;;;7.63;4.95;;;13.80;99.90;;;;;;5092133;28;20169;-45
2023/05/03 09:14:44;;;;;;;7.85;4.55;;;13.70;99.90;;;;;;5092038;28;20177;-45
2023/05/03 09:17:19;;;;;;;5.97;4.78;;;13.70;99.90;;;;;;5091730;28;20719;-45
2023/05/03 09:19:53;;;;;;;7.90;5.10;;;14.00;99.90;;;;;;5092103;28;20169;-45
2023/05/03 09:22:19;;;;;;;6.40;4.45;;;14.10;99.50;;;;;;5091772;28;20176;-45
2023/05/03 09:24:55;;;;;;;7.60;4.85;;;14.10;99.60;;;;;;5091559;28;20736;-45
2023/05/03 09:27:23;;;;;;;8.05;4.72;;;14.30;99.80;;;;;;5091814;28;20169;-49
2023/05/03 09:29:49;;;;;;;6.13;4.55;;;14.30;99.90;;;;;;5091766;28;20173;-46
2023/05/03 09:32:16;;;;;;;6.63;4.40;;;14.20;98.60;;;;;;5091456;28;20192;-45
2023/05/03 09:34:42;;;;;;;6.13;4.18;;;14.30;96.50;;;;;;5091480;28;20223;-45
2023/05/03 09:37:08;;;;;;;11.32;4.55;;;14.20;96.40;;;;;;5091408;28;20208;-45
2023/05/03 09:39:35;;;;;;;9.65;4.63;;;14.40;96.60;;;;;;5091889;28;20172;-45
2023/05/03 09:42:11;;;;;;;13.63;5.10;;;14.60;98.40;;;;;;5091270;28;20181;-45
2023/05/03 09:44:47;;;;;;;7.05;4.18;;;14.70;96.20;;;;;;5091136;28;20646;-51
2023/05/03 09:47:13;;;;;;;6.68;4.05;;;;;;;;;;5091191;28;20180;-45
2023/05/03 09:49:39;;;;;;;5.75;3.80;;;14.70;95.30;;;;;;5091176;28;20632;-45
2023/05/03 09:52:06;;;;;;;5.97;4.15;;;;;;;;;;5089583;28;20173;-45
2023/05/03 09:54:35;;;;;;;6.43;3.95;;;14.80;94.70;;;;;;5091221;28;20173;-45
2023/05/03 09:57:03;;;;;;;7.82;4.32;;;15.00;95.30;;;;;;5090993;28;20744;-45
2023/05/03 09:59:30;;;;;;;7.45;4.07;;;15.00;94.00;;;;;;5091237;28;20181;-45
2023/05/03 10:02:00;;;;;;;6.25;3.97;;;15.00;93.70;;;;;;5091270;28;20172;-47
2023/05/03 10:04:28;;;;;;;7.65;3.80;;;15.10;92.80;;;;;;5090056;28;20268;-45
2023/05/03 10:07:03;;;;;;;6.90;4.05;;;15.00;93.20;;;;;;5091000;28;20177;-45
2023/05/03 10:09:39;;;;;;;6.80;4.03;;;15.10;93.30;;;;;;5091112;28;20168;-45
2023/05/03 10:12:08;;;;;;;5.90;3.63;;;14.90;92.10;;;;;;5089744;28;20218;-44
2023/05/03 10:14:34;;;;;;;5.10;3.85;;;15.30;92.70;;;;;;5090768;28;20173;-45
2023/05/03 10:17:08;;;;;;;8.27;3.80;;;16.30;93.60;;;;;;5090845;28;20197;-45
2023/05/03 10:19:34;;;;;;;7.25;4.40;;;;;;;;;;5090432;28;20165;-48
2023/05/03 10:22:10;;;;;;;5.55;3.95;;;15.60;92.30;;;;;;5089711;28;20184;-46
2023/05/03 10:25:01;;;;;;;5.88;4.18;;;15.30;92.80;;;;;;5090567;28;20218;-46
2023/05/03 10:27:44;;;;;;;6.63;4.03;;;15.40;93.20;;;;;;5090876;28;20201;-46
2023/05/03 10:30:33;;;;;;;9.10;4.60;;;15.50;92.30;;;;;;5090276;28;20173;-46
2023/05/03 10:33:11;;;;;;;7.40;3.80;;;15.40;91.70;;;;;;5091047;28;20173;-46
2023/05/03 10:35:42;;;;;;;5.90;4.20;;;15.50;90.80;;;;;;5090065;28;20275;-46
2023/05/03 10:38:16;;;;;;;4.45;3.60;;;15.70;91.90;;;;;;5090338;28;20173;-46
2023/05/03 10:40:42;;;;;;;8.00;4.45;;;15.70;91.90;;;;;;5090079;28;20538;-46
2023/05/03 10:43:28;;;;;;;5.45;3.75;;;16.00;93.00;;;;;;5090426;28;20184;-46
2023/05/03 10:45:57;;;;;;;5.13;3.67;;;15.90;91.40;;;;;;5089996;28;20161;-46
2023/05/03 10:48:23;;;;;;;9.60;4.47;;;16.00;93.00;;;;;;5090157;28;20173;-47
2023/05/03 10:50:50;;;;;;;6.55;4.15;;;16.10;91.60;;;;;;5090355;28;20176;-46
2023/05/03 10:53:32;;;;;;;7.60;4.28;;;16.20;91.00;;;;;;5089883;28;20162;-46
2023/05/03 10:56:08;;;;;;;6.13;4.00;;;16.20;90.40;;;;;;5090607;28;20213;-49
2023/05/03 10:58:42;;;;;;;10.38;4.80;;;16.30;90.90;;;;;;5089985;28;20169;-46
2023/05/03 11:01:09;;;;;;;8.50;4.32;;;16.40;91.00;;;;;;5089877;28;20165;-46
2023/05/03 11:04:03;;;;;;;7.53;4.00;;;16.40;90.60;;;;;;5089878;28;20162;-46
2023/05/03 11:06:36;;;;;;;5.47;3.63;;;16.60;88.10;;;;;;5090491;28;20181;-46
2023/05/03 11:09:04;;;;;;;4.75;3.92;;;16.60;88.30;;;;;;5090102;28;20165;-46
2023/05/03 11:11:30;;;;;;;7.07;4.35;;;;;;;;;;5089738;28;20259;-46
2023/05/03 11:13:56;;;;;;;4.78;3.70;;;16.70;90.00;;;;;;5090172;28;20252;-46
2023/05/03 11:16:22;;;;;;;8.75;4.78;;;17.00;90.30;;;;;;5089500;28;20201;-46
2023/05/03 11:18:48;;;;;;;4.07;3.60;;;;;;;;;;5090006;28;20183;-46
2023/05/03 11:21:15;;;;;;;4.43;3.65;;;17.10;86.10;;;;;;5089913;28;20172;-46
2023/05/03 11:23:41;;;;;;;6.65;4.18;;;17.10;88.20;;;;;;5090945;28;20176;-46
2023/05/03 11:26:11;;;;;;;7.80;4.13;;;17.20;88.20;;;;;;5093755;28;20171;-46
2023/05/03 11:28:38;;;;;;;6.50;4.03;;;17.20;87.00;;;;;;5093861;28;20215;-46
2023/05/03 11:31:05;;;;;;;5.53;4.15;;;17.20;86.50;;;;;;5094035;28;20169;-46
2023/05/03 11:33:33;;;;;;;9.77;4.25;;;16.80;84.50;;;;;;5093723;28;20169;-45
2023/05/03 11:36:02;;;;;;;6.70;4.15;;;17.00;84.30;;;;;;5094177;28;20274;-46
2023/05/03 11:38:32;;;;;;;7.70;4.55;;;17.10;86.20;;;;;;5093261;28;20162;-46
2023/05/03 11:40:59;;;;;;;8.63;4.22;;;17.10;84.80;;;;;;5093824;28;20225;-45
2023/05/03 11:43:25;;;;;;;8.95;3.97;;;17.20;86.20;;;;;;5093304;28;20165;-46
2023/05/03 11:45:55;;;;;;;7.47;4.03;;;17.40;84.80;;;;;;5093381;28;20584;-49
2023/05/03 11:48:21;;;;;;;4.07;3.67;;;;;;;;;;5093518;28;20687;-48
2023/05/03 11:50:54;;;;;;;6.07;3.60;;;17.80;85.40;;;;;;5092118;28;20255;-46
2023/05/03 11:53:20;;;;;;;6.20;4.03;;;;;;;;;;5093019;28;20168;-45
2023/05/03 11:55:47;;;;;;;4.82;3.20;;;17.60;82.60;;;;;;5093268;28;20288;-46
2023/05/03 11:58:13;;;;;;;10.18;3.67;;;17.40;81.50;;;;;;5091914;28;20248;-48
2023/05/03 12:00:42;;;;;;;3.70;3.25;;;17.40;80.80;;;;;;5093429;28;20614;-46
2023/05/03 12:03:09;;;;;;;4.40;3.60;;;;;;;;;;5092969;28;20173;-46
2023/05/03 12:05:34;;;;;;;6.90;3.97;;;17.70;81.60;;;;;;5092977;28;20298;-46
2023/05/03 12:08:00;;;;;;;6.00;3.75;;;18.00;81.70;;;;;;5092684;28;20201;-49
2023/05/03 12:10:31;;;;;;;5.25;3.70;;;17.90;82.30;;;;;;5092003;28;20185;-46
2023/05/03 12:13:01;;;;;;;7.50;3.97;;;18.00;80.70;;;;;;5093591;28;20173;-45
2023/05/03 12:15:31;;;;;;;4.65;3.88;;;17.90;79.90;;;;;;5093182;28;20177;-45
2023/05/03 12:17:59;;;;;;;6.45;3.47;;;17.90;80.20;;;;;;5093000;28;20180;-47
2023/05/03 12:20:29;;;;;;;5.40;3.53;;;18.20;79.60;;;;;;5093030;28;20577;-45
2023/05/03 12:23:02;;;;;;;7.45;3.47;;;18.30;80.60;;;;;;5093062;28;20181;-46
2023/05/03 12:25:28;;;;;;;5.05;3.70;;;18.50;79.60;;;;;;5093153;28;20177;-45
2023/05/03 12:27:56;;;;;;;4.63;3.50;;;18.30;79.60;;;;;;5092481;28;20170;-45
2023/05/03 12:30:22;;;;;;;6.70;3.67;;;18.50;80.60;;;;;;5092318;28;20165;-46
2023/05/03 12:32:49;;;;;;;5.35;3.47;;;;;;;;;;5092458;28;20181;-46
2023/05/03 12:35:15;;;;;;;4.22;3.40;;;;;;;;;;5091567;28;20165;-46
2023/05/03 12:37:41;;;;;;;7.00;3.33;;;18.40;79.70;;;;;;5092070;28;20555;-46
2023/05/03 12:40:07;;;;;;;7.25;3.08;;;18.30;80.00;;;;;;5092204;28;20244;-46
2023/05/03 12:42:33;;;;;;;5.35;3.20;;;18.50;80.50;;;;;;5092241;28;20595;-45
2023/05/03 12:44:58;;;;;;;7.88;3.45;;;18.50;79.30;;;;;;5092943;28;20161;-45
2023/05/03 12:47:25;;;;;;;7.68;3.05;;;;;;;;;;5090579;28;20803;-45
2023/05/03 12:49:51;;;;;;;5.68;3.25;;;18.50;78.00;;;;;;5092655;28;20184;-46
2023/05/03 12:52:17;;;;;;;8.43;2.97;;;18.50;77.70;;;;;;5091435;28;20177;-45
2023/05/03 12:54:45;;;;;;;6.35;3.20;;;;;;;;;;5092344;28;20195;-45
2023/05/03 12:57:11;;;;;;;6.25;3.40;;;;;;;;;;5092133;28;20303;-45
2023/05/03 12:59:37;;;;;;;4.55;3.47;;;19.00;77.50;;;;;;5091924;28;20250;-46
2023/05/03 13:02:03;;;;;;;6.47;3.35;;;19.00;77.70;;;;;;5091931;28;20663;-46
2023/05/03 13:04:29;;;;;;;5.43;2.88;;;19.00;76.80;;;;;;5092323;28;20204;-45
2023/05/03 13:06:55;;;;;;;6.65;3.28;;;19.30;75.80;;;;;;5092667;28;20169;-46
2023/05/03 13:09:21;;;;;;;3.90;2.97;;;;;;;;;;5092174;28;20201;-46
2023/05/03 13:11:51;;;;;;;4.28;3.15;;;18.90;74.20;;;;;;5091948;28;20252;-46
2023/05/03 13:14:18;;;;;;;6.03;3.10;;;19.00;74.00;;;;;;5092007;28;20177;-46
2023/05/03 13:16:44;;;;;;;3.88;3.17;;;;;;;;;;5091754;28;20209;-45